createdAt,value
2023-05-23T00:01:24.960Z,81.12
2023-05-23T00:03:56.005Z,80.92
2023-05-23T00:06:24.224Z,80.51
2023-05-23T00:08:52.240Z,80.57
2023-05-23T00:11:20.488Z,80.29
2023-05-23T00:13:48.292Z,80.18
2023-05-23T00:16:16.428Z,80.22
2023-05-23T00:18:46.014Z,80.45
2023-05-23T00:21:14.595Z,80.12
2023-05-23T00:23:43.350Z,80.11
2023-05-23T00:26:11.145Z,79.99
2023-05-23T00:28:39.295Z,80.05
2023-05-23T00:31:07.387Z,79.73
2023-05-23T00:33:36.370Z,80.12
2023-05-23T00:36:06.158Z,79.86
2023-05-23T00:38:33.967Z,79.75
2023-05-23T00:41:02.736Z,79.98
2023-05-23T00:43:30.588Z,79.94
2023-05-23T00:45:58.483Z,80.08
2023-05-23T00:48:26.926Z,79.78
2023-05-23T00:50:55.328Z,79.88
2023-05-23T00:53:24.526Z,79.40
2023-05-23T00:55:52.387Z,79.31
2023-05-23T00:58:20.225Z,79.00
2023-05-23T01:00:50.417Z,78.89
2023-05-23T01:03:19.080Z,78.30
2023-05-23T01:05:46.926Z,78.56
2023-05-23T01:08:15.922Z,78.16
2023-05-23T01:10:45.245Z,78.33
2023-05-23T01:13:22.652Z,78.47
2023-05-23T01:16:03.324Z,78.30
2023-05-23T01:18:35.550Z,78.18
2023-05-23T01:21:08.292Z,78.20
2023-05-23T01:24:06.071Z,78.12
2023-05-23T01:26:45.794Z,77.79
2023-05-23T01:29:16.449Z,77.72
2023-05-23T01:31:45.688Z,78.19
2023-05-23T01:34:14.352Z,78.11
2023-05-23T01:36:43.875Z,78.43
2023-05-23T01:39:12.066Z,78.11
2023-05-23T01:41:39.893Z,78.19
2023-05-23T01:44:07.914Z,77.50
2023-05-23T01:46:39.243Z,78.07
2023-05-23T01:49:09.784Z,78.07
2023-05-23T01:51:37.813Z,77.67
2023-05-23T01:54:05.862Z,77.65
2023-05-23T01:56:33.893Z,77.82
2023-05-23T01:59:02.062Z,78.08
2023-05-23T02:01:29.982Z,78.07
2023-05-23T02:03:59.139Z,78.86
2023-05-23T02:06:26.925Z,78.89
2023-05-23T02:08:54.689Z,79.30
2023-05-23T02:11:22.648Z,78.84
2023-05-23T02:13:50.502Z,79.24
2023-05-23T02:16:18.670Z,78.93
2023-05-23T02:18:47.077Z,79.80
2023-05-23T02:21:16.350Z,79.71
2023-05-23T02:23:44.222Z,79.81
2023-05-23T02:26:12.115Z,79.03
2023-05-23T02:28:39.918Z,79.13
2023-05-23T02:31:07.825Z,79.84
2023-05-23T02:33:35.738Z,80.37
2023-05-23T02:36:03.772Z,80.61
2023-05-23T02:38:32.978Z,79.89
2023-05-23T02:41:00.927Z,80.60
2023-05-23T02:43:29.170Z,80.24
2023-05-23T02:45:56.985Z,80.53
2023-05-23T02:48:24.877Z,80.66
2023-05-23T02:50:52.856Z,79.90
2023-05-23T02:53:20.752Z,80.36
2023-05-23T02:55:49.932Z,80.15
2023-05-23T02:58:17.750Z,80.51
2023-05-23T03:00:45.566Z,80.39
2023-05-23T03:03:13.619Z,79.96
2023-05-23T03:05:42.399Z,80.59
2023-05-23T03:08:10.937Z,79.76
2023-05-23T03:10:39.000Z,80.57
2023-05-23T03:13:08.602Z,80.07
2023-05-23T03:15:36.593Z,80.74
2023-05-23T03:18:04.844Z,80.16
2023-05-23T03:20:32.947Z,79.76
2023-05-23T03:23:01.011Z,79.75
2023-05-23T03:25:29.036Z,79.83
2023-05-23T03:27:57.138Z,80.50
2023-05-23T03:30:26.584Z,80.48
2023-05-23T03:32:54.632Z,80.52
2023-05-23T03:35:22.702Z,79.85
2023-05-23T03:37:50.803Z,79.93
2023-05-23T03:40:18.836Z,79.86
2023-05-23T03:42:49.163Z,79.79
2023-05-23T03:45:18.530Z,78.84
2023-05-23T03:47:48.077Z,79.55
2023-05-23T03:50:16.141Z,79.37
2023-05-23T03:52:44.227Z,78.49
2023-05-23T03:55:12.607Z,79.01
2023-05-23T03:57:40.688Z,78.78
2023-05-23T04:00:12.345Z,78.43
2023-05-23T04:02:41.030Z,77.47
2023-05-23T04:05:11.116Z,77.74
2023-05-23T04:07:39.281Z,77.05
2023-05-23T04:10:08.735Z,77.26
2023-05-23T04:12:36.822Z,76.96
2023-05-23T04:15:05.428Z,76.85
2023-05-23T04:17:33.649Z,76.98
2023-05-23T04:20:01.857Z,76.86
2023-05-23T04:22:31.115Z,76.61
2023-05-23T04:24:58.985Z,76.10
2023-05-23T04:27:26.792Z,76.42
2023-05-23T04:29:56.487Z,76.61
2023-05-23T04:32:24.428Z,75.56
2023-05-23T04:34:52.291Z,75.31
2023-05-23T04:37:22.206Z,75.41
2023-05-23T04:39:51.418Z,75.55
2023-05-23T04:42:24.540Z,75.20
2023-05-23T04:44:53.209Z,75.19
2023-05-23T04:47:21.051Z,75.50
2023-05-23T04:49:49.054Z,76.12
2023-05-23T04:52:19.125Z,74.92
2023-05-23T04:54:48.901Z,75.16
2023-05-23T04:57:18.338Z,74.78
2023-05-23T04:59:46.627Z,74.62
2023-05-23T05:02:14.472Z,74.77
2023-05-23T05:04:42.297Z,74.20
2023-05-23T05:07:10.118Z,73.41
2023-05-23T05:09:38.189Z,72.90
2023-05-23T05:12:06.231Z,72.08
2023-05-23T05:14:35.514Z,72.37
2023-05-23T05:17:04.139Z,72.33
2023-05-23T05:19:32.217Z,72.17
2023-05-23T05:22:00.287Z,71.92
2023-05-23T05:24:29.085Z,71.81
2023-05-23T05:26:57.463Z,71.51
2023-05-23T05:29:25.363Z,70.75
2023-05-23T05:31:54.688Z,71.10
2023-05-23T05:34:23.397Z,71.47
2023-05-23T05:36:55.922Z,71.67
2023-05-23T05:39:25.588Z,71.88
2023-05-23T05:41:53.381Z,71.83
2023-05-23T05:44:21.223Z,71.29
2023-05-23T05:46:49.633Z,71.44
2023-05-23T05:49:18.820Z,71.14
2023-05-23T05:51:46.650Z,70.06
2023-05-23T05:54:14.509Z,71.25
2023-05-23T05:56:43.155Z,70.81
2023-05-23T05:59:11.140Z,69.12
2023-05-23T06:01:39.060Z,69.50
2023-05-23T06:04:07.024Z,69.45
2023-05-23T06:06:36.407Z,69.02
2023-05-23T06:09:04.395Z,70.15
2023-05-23T06:11:32.625Z,69.65
2023-05-23T06:14:00.636Z,69.72
2023-05-23T06:16:28.667Z,69.95
2023-05-23T06:18:59.793Z,69.95
2023-05-23T06:21:27.863Z,70.09
2023-05-23T06:23:57.579Z,70.41
2023-05-23T06:26:26.314Z,71.10
2023-05-23T06:28:54.267Z,71.36
2023-05-23T06:31:22.157Z,71.56
2023-05-23T06:33:50.080Z,71.58
2023-05-23T06:36:17.983Z,72.01
2023-05-23T06:38:45.841Z,71.81
2023-05-23T06:41:15.067Z,72.07
2023-05-23T06:43:45.884Z,71.84
2023-05-23T06:46:13.739Z,71.23
2023-05-23T06:48:41.967Z,72.05
2023-05-23T06:51:10.556Z,71.59
2023-05-23T06:53:38.467Z,72.49
2023-05-23T06:56:06.699Z,72.38
2023-05-23T06:58:35.997Z,72.34
2023-05-23T07:01:03.786Z,71.58
2023-05-23T07:03:31.669Z,71.17
2023-05-23T07:05:59.533Z,71.11
2023-05-23T07:08:27.415Z,70.48
2023-05-23T07:10:55.214Z,70.11
2023-05-23T07:13:23.137Z,69.26
2023-05-23T07:15:52.289Z,69.29
2023-05-23T07:18:20.108Z,68.60
2023-05-23T07:20:47.897Z,68.32
2023-05-23T07:23:17.245Z,68.29
2023-05-23T07:26:00.533Z,68.70
2023-05-23T07:28:30.480Z,68.75
2023-05-23T07:30:59.788Z,68.91
2023-05-23T07:33:27.647Z,68.76
2023-05-23T07:35:55.557Z,69.39
2023-05-23T07:38:23.390Z,69.75
2023-05-23T07:41:02.580Z,70.08
2023-05-23T07:43:38.263Z,69.89
2023-05-23T07:46:07.836Z,69.58
2023-05-23T07:48:35.890Z,69.29
2023-05-23T07:51:04.029Z,69.16
2023-05-23T07:53:31.861Z,68.40
2023-05-23T07:55:59.655Z,68.59
2023-05-23T07:58:27.447Z,68.91
2023-05-23T08:00:55.257Z,68.73
2023-05-23T08:03:24.555Z,68.49
2023-05-23T08:05:52.516Z,69.04
2023-05-23T08:08:20.358Z,69.21
2023-05-23T08:10:48.319Z,69.05
2023-05-23T08:13:16.456Z,68.92
2023-05-23T08:15:45.565Z,69.13
2023-05-23T08:18:14.076Z,68.60
2023-05-23T08:20:56.912Z,68.99
2023-05-23T08:23:24.778Z,68.39
2023-05-23T08:25:53.631Z,68.26
2023-05-23T08:28:21.537Z,68.20
2023-05-23T08:30:49.620Z,67.57
2023-05-23T08:33:17.440Z,66.89
2023-05-23T08:35:45.299Z,66.84
2023-05-23T08:38:14.487Z,65.46
2023-05-23T08:40:42.860Z,64.96
2023-05-23T08:43:12.493Z,63.68
2023-05-23T08:45:40.819Z,62.82
2023-05-23T08:48:10.025Z,62.58
2023-05-23T08:50:39.438Z,62.89
2023-05-23T08:53:08.657Z,63.38
2023-05-23T08:55:39.405Z,63.31
2023-05-23T08:58:07.631Z,62.99
2023-05-23T09:00:36.095Z,62.87
2023-05-23T09:03:04.067Z,62.94
2023-05-23T09:05:32.062Z,63.37
2023-05-23T09:08:00.051Z,63.28
2023-05-23T09:10:29.971Z,64.14
2023-05-23T09:12:59.257Z,63.82
2023-05-23T09:15:27.516Z,63.25
2023-05-23T09:17:55.441Z,63.17
2023-05-23T09:20:23.367Z,62.76
2023-05-23T09:22:51.150Z,62.86
2023-05-23T09:25:19.043Z,62.20
2023-05-23T09:27:48.363Z,61.55
2023-05-23T09:30:19.105Z,61.59
2023-05-23T09:33:01.242Z,62.00
2023-05-23T09:35:31.083Z,61.60
2023-05-23T09:38:00.325Z,61.16
2023-05-23T09:40:33.086Z,61.51
2023-05-23T09:43:04.083Z,60.31
2023-05-23T09:45:34.281Z,61.57
2023-05-23T09:48:02.719Z,62.74
2023-05-23T09:50:33.547Z,62.65
2023-05-23T09:53:01.789Z,63.39
2023-05-23T09:55:29.700Z,63.79
2023-05-23T09:58:00.350Z,63.68
2023-05-23T10:00:28.587Z,64.02
2023-05-23T10:03:08.510Z,63.98
2023-05-23T10:05:38.124Z,64.40
2023-05-23T10:08:10.766Z,64.22
2023-05-23T10:11:17.107Z,64.52
2023-05-23T10:13:46.244Z,65.06
2023-05-23T10:16:18.340Z,64.84
2023-05-23T10:18:50.648Z,64.23
2023-05-23T10:21:20.950Z,63.32
2023-05-23T10:23:49.204Z,63.14
2023-05-23T10:26:17.511Z,62.38
2023-05-23T10:28:45.460Z,61.71
2023-05-23T10:31:13.931Z,62.33
2023-05-23T10:33:44.098Z,63.53
2023-05-23T10:36:19.486Z,64.46
2023-05-23T10:38:52.187Z,63.97
2023-05-23T10:41:25.175Z,64.05
2023-05-23T10:43:57.864Z,65.52
2023-05-23T10:46:53.058Z,65.92
2023-05-23T10:49:21.314Z,66.82
2023-05-23T10:51:52.301Z,66.98
2023-05-23T10:54:21.192Z,67.28
2023-05-23T10:56:49.698Z,65.68
2023-05-23T10:59:28.922Z,65.37
2023-05-23T11:01:57.065Z,64.18
2023-05-23T11:04:28.696Z,64.16
2023-05-23T11:06:58.157Z,64.45
2023-05-23T11:09:26.160Z,64.73
2023-05-23T11:12:00.807Z,65.08
2023-05-23T11:14:54.838Z,64.24
2023-05-23T11:17:34.120Z,64.88
2023-05-23T11:20:06.548Z,63.55
2023-05-23T11:22:36.161Z,64.87
2023-05-23T11:25:08.928Z,64.88
2023-05-23T11:27:38.963Z,65.37
2023-05-23T11:30:09.508Z,66.21
2023-05-23T11:32:38.326Z,66.49
2023-05-23T11:35:07.699Z,66.86
2023-05-23T11:37:37.261Z,65.94
2023-05-23T11:40:26.912Z,66.23
2023-05-23T11:42:54.968Z,65.61
2023-05-23T11:45:23.642Z,62.66
2023-05-23T11:47:51.506Z,62.39
2023-05-23T11:50:20.517Z,62.21
2023-05-23T11:52:52.373Z,61.65
2023-05-23T11:55:21.178Z,61.76
2023-05-23T11:57:49.170Z,62.19
2023-05-23T12:00:18.086Z,63.21
2023-05-23T12:02:47.736Z,62.29
2023-05-23T12:05:16.379Z,62.65
2023-05-23T12:07:45.407Z,63.66
2023-05-23T12:10:16.414Z,64.01
2023-05-23T12:12:44.547Z,63.88
2023-05-23T12:15:13.661Z,64.20
2023-05-23T12:17:46.004Z,63.86
2023-05-23T12:20:14.225Z,62.87
2023-05-23T12:22:43.097Z,62.91
2023-05-23T12:25:11.682Z,64.19
2023-05-23T12:27:44.070Z,64.39
2023-05-23T12:30:14.716Z,64.76
2023-05-23T12:32:43.527Z,64.79
2023-05-23T12:35:13.195Z,64.64
2023-05-23T12:37:43.053Z,64.87
2023-05-23T12:40:13.050Z,64.34
2023-05-23T12:42:52.632Z,64.23
2023-05-23T12:45:20.680Z,64.24
2023-05-23T12:47:49.134Z,64.12
2023-05-23T12:50:18.532Z,63.90
2023-05-23T12:52:46.366Z,63.89
2023-05-23T12:55:14.534Z,63.81
2023-05-23T12:57:42.345Z,63.46
2023-05-23T13:00:12.922Z,63.39
2023-05-23T13:02:40.869Z,62.95
2023-05-23T13:05:09.455Z,62.13
2023-05-23T13:07:38.017Z,61.91
2023-05-23T13:10:06.665Z,61.55
2023-05-23T13:12:34.819Z,61.04
2023-05-23T13:15:02.689Z,60.78
2023-05-23T13:17:32.038Z,60.44
2023-05-23T13:19:59.920Z,59.47
2023-05-23T13:22:27.776Z,59.69
2023-05-23T13:24:55.615Z,59.03
2023-05-23T13:27:23.455Z,60.56
2023-05-23T13:29:51.296Z,59.46
2023-05-23T13:32:19.201Z,59.67
2023-05-23T13:34:48.447Z,60.69
2023-05-23T13:37:16.300Z,61.99
2023-05-23T13:39:44.085Z,62.75
2023-05-23T13:42:12.404Z,63.21
2023-05-23T13:44:40.209Z,63.78
2023-05-23T13:47:13.229Z,63.58
2023-05-23T13:49:41.534Z,63.57
2023-05-23T13:52:10.778Z,63.88
2023-05-23T13:54:38.607Z,64.57
2023-05-23T13:57:07.104Z,65.01
2023-05-23T13:59:35.033Z,65.28
2023-05-23T14:02:02.865Z,65.18
2023-05-23T14:04:30.789Z,65.72
2023-05-23T14:06:58.580Z,66.55
2023-05-23T14:09:27.768Z,66.95
2023-05-23T14:11:55.730Z,66.70
2023-05-23T14:14:23.797Z,67.24
2023-05-23T14:16:52.110Z,68.02
2023-05-23T14:19:20.264Z,69.27
2023-05-23T14:21:48.117Z,68.96
2023-05-23T14:24:16.002Z,69.38
2023-05-23T14:26:45.189Z,68.63
2023-05-23T14:29:13.009Z,68.22
2023-05-23T14:31:40.936Z,67.85
2023-05-23T14:34:08.896Z,66.16
2023-05-23T14:36:37.081Z,65.75
2023-05-23T14:39:05.993Z,64.34
2023-05-23T14:41:34.701Z,63.61
2023-05-23T14:44:04.635Z,62.92
2023-05-23T14:46:32.607Z,61.35
2023-05-23T14:49:00.413Z,58.79
2023-05-23T14:51:42.916Z,57.98
2023-05-23T14:54:13.042Z,57.98
2023-05-23T14:56:41.235Z,55.66
2023-05-23T14:59:11.092Z,56.35
2023-05-23T15:01:40.487Z,55.97
2023-05-23T15:04:09.682Z,55.70
2023-05-23T15:06:38.385Z,55.54
2023-05-23T15:09:06.419Z,56.58
2023-05-23T15:11:34.993Z,55.67
2023-05-23T15:14:02.999Z,55.75
2023-05-23T15:16:33.433Z,53.85
2023-05-23T15:19:01.495Z,54.03
2023-05-23T15:21:29.486Z,53.93
2023-05-23T15:23:57.807Z,54.37
2023-05-23T15:26:26.824Z,54.13
2023-05-23T15:28:54.611Z,54.76
2023-05-23T15:31:22.721Z,55.56
2023-05-23T15:33:52.049Z,54.19
2023-05-23T15:36:19.934Z,54.97
2023-05-23T15:38:47.754Z,55.42
2023-05-23T15:41:15.558Z,55.63
2023-05-23T15:43:43.320Z,56.14
2023-05-23T15:46:11.313Z,57.16
2023-05-23T15:48:39.183Z,56.56
2023-05-23T15:51:08.412Z,56.90
2023-05-23T15:53:47.851Z,57.36
2023-05-23T15:56:24.028Z,57.74
2023-05-23T15:58:51.813Z,57.34
2023-05-23T16:01:19.770Z,57.33
2023-05-23T16:03:48.596Z,57.09
2023-05-23T16:06:18.038Z,57.16
2023-05-23T16:08:45.893Z,56.26
2023-05-23T16:11:13.674Z,56.50
2023-05-23T16:13:41.486Z,56.87
2023-05-23T16:16:09.326Z,56.96
2023-05-23T16:18:37.251Z,56.52
2023-05-23T16:21:05.690Z,56.74
2023-05-23T16:23:34.874Z,57.11
2023-05-23T16:26:02.843Z,57.46
2023-05-23T16:28:30.643Z,57.12
2023-05-23T16:30:58.483Z,57.96
2023-05-23T16:33:26.319Z,57.04
2023-05-23T16:35:54.063Z,57.28
2023-05-23T16:38:21.829Z,56.33
2023-05-23T16:40:50.985Z,55.28
2023-05-23T16:43:18.759Z,55.96
2023-05-23T16:45:46.872Z,55.91
2023-05-23T16:48:15.111Z,55.07
2023-05-23T16:50:43.031Z,54.98
2023-05-23T16:53:11.142Z,54.51
2023-05-23T16:55:39.177Z,53.89
2023-05-23T16:58:08.367Z,53.38
2023-05-23T17:00:36.194Z,52.03
2023-05-23T17:03:04.214Z,52.34
2023-05-23T17:05:32.038Z,52.37
2023-05-23T17:07:59.892Z,52.93
2023-05-23T17:10:27.698Z,53.71
2023-05-23T17:12:55.692Z,54.05
2023-05-23T17:15:25.616Z,54.92
2023-05-23T17:17:53.465Z,55.01
2023-05-23T17:20:24.044Z,54.42
2023-05-23T17:22:51.989Z,54.40
2023-05-23T17:25:19.776Z,53.85
2023-05-23T17:27:47.530Z,53.39
2023-05-23T17:30:18.473Z,52.05
2023-05-23T17:32:47.935Z,52.17
2023-05-23T17:35:15.906Z,52.35
2023-05-23T17:37:45.096Z,52.78
2023-05-23T17:40:13.965Z,52.46
2023-05-23T17:42:42.582Z,52.57
2023-05-23T17:45:11.209Z,52.79
2023-05-23T17:47:39.348Z,52.88
2023-05-23T17:50:09.825Z,53.06
2023-05-23T17:52:37.829Z,52.60
2023-05-23T17:55:06.433Z,52.96
2023-05-23T17:57:34.297Z,53.98
2023-05-23T18:00:02.115Z,54.06
2023-05-23T18:02:29.925Z,54.58
2023-05-23T18:04:57.703Z,55.13
2023-05-23T18:07:26.921Z,55.49
2023-05-23T18:09:54.793Z,55.75
2023-05-23T18:12:22.725Z,56.48
2023-05-23T18:14:52.168Z,56.84
2023-05-23T18:17:20.185Z,56.44
2023-05-23T18:19:48.072Z,56.11
2023-05-23T18:22:16.656Z,56.93
2023-05-23T18:24:45.974Z,57.17
2023-05-23T18:27:13.938Z,57.12
2023-05-23T18:29:41.780Z,58.36
2023-05-23T18:32:09.736Z,58.65
2023-05-23T18:34:39.375Z,59.06
2023-05-23T18:37:07.315Z,59.01
2023-05-23T18:39:35.118Z,59.71
2023-05-23T18:42:04.316Z,59.88
2023-05-23T18:44:32.058Z,59.70
2023-05-23T18:46:59.987Z,59.97
2023-05-23T18:49:27.846Z,60.13
2023-05-23T18:51:55.825Z,60.62
2023-05-23T18:54:23.634Z,61.36
2023-05-23T18:56:51.626Z,61.95
2023-05-23T18:59:20.914Z,61.66
2023-05-23T19:01:48.886Z,62.20
2023-05-23T19:04:17.405Z,62.60
2023-05-23T19:06:46.347Z,62.76
2023-05-23T19:09:14.192Z,63.32
2023-05-23T19:11:42.027Z,62.86
2023-05-23T19:14:09.967Z,63.37
2023-05-23T19:16:40.017Z,63.27
2023-05-23T19:19:07.851Z,63.41
2023-05-23T19:21:35.698Z,63.17
2023-05-23T19:24:07.331Z,62.81
2023-05-23T19:26:35.250Z,63.25
2023-05-23T19:29:03.405Z,63.06
2023-05-23T19:31:31.661Z,62.92
2023-05-23T19:34:00.948Z,63.05
2023-05-23T19:36:28.744Z,62.81
2023-05-23T19:38:56.678Z,63.03
2023-05-23T19:41:24.483Z,63.05
2023-05-23T19:43:52.363Z,63.14
2023-05-23T19:46:20.337Z,63.16
2023-05-23T19:48:48.778Z,63.20
2023-05-23T19:51:17.906Z,63.29
2023-05-23T19:53:45.739Z,63.73
2023-05-23T19:56:13.860Z,64.11
2023-05-23T19:58:41.731Z,64.39
2023-05-23T20:01:09.570Z,64.99
2023-05-23T20:03:37.669Z,65.06
2023-05-23T20:06:05.929Z,64.97
2023-05-23T20:08:35.217Z,65.14
2023-05-23T20:11:03.050Z,64.63
2023-05-23T20:13:31.119Z,64.68
2023-05-23T20:15:59.143Z,65.25
2023-05-23T20:18:27.902Z,65.23
2023-05-23T20:20:56.156Z,65.03
2023-05-23T20:23:24.679Z,64.71
2023-05-23T20:25:54.593Z,65.16
2023-05-23T20:28:24.461Z,65.12
2023-05-23T20:30:52.721Z,65.05
2023-05-23T20:33:20.827Z,65.52
2023-05-23T20:35:49.753Z,65.53
2023-05-23T20:38:18.559Z,65.54
2023-05-23T20:40:49.579Z,65.48
2023-05-23T20:43:22.266Z,65.62
2023-05-23T20:45:50.526Z,65.72
2023-05-23T20:48:18.351Z,65.71
2023-05-23T20:50:46.324Z,65.60
2023-05-23T20:53:14.073Z,65.12
2023-05-23T20:55:42.538Z,65.04
2023-05-23T20:58:10.504Z,64.81
2023-05-23T21:00:39.838Z,65.37
2023-05-23T21:03:07.907Z,65.17
2023-05-23T21:05:35.924Z,64.92
2023-05-23T21:08:04.486Z,64.56
2023-05-23T21:10:32.874Z,64.74
2023-05-23T21:13:00.706Z,64.63
2023-05-23T21:15:28.686Z,64.46
2023-05-23T21:17:57.997Z,63.83
2023-05-23T21:20:25.816Z,64.26
2023-05-23T21:22:53.750Z,64.60
2023-05-23T21:25:21.866Z,65.08
2023-05-23T21:27:50.044Z,64.84
2023-05-23T21:30:17.922Z,64.96
2023-05-23T21:32:46.438Z,65.94
2023-05-23T21:35:15.917Z,65.75
2023-05-23T21:37:43.711Z,67.70
2023-05-23T21:40:11.858Z,67.27
2023-05-23T21:42:40.216Z,66.36
2023-05-23T21:45:09.157Z,64.99
2023-05-23T21:47:37.007Z,64.90
2023-05-23T21:50:05.220Z,64.98
2023-05-23T21:52:34.718Z,65.00
2023-05-23T21:55:03.051Z,65.42
2023-05-23T21:57:34.140Z,65.79
2023-05-23T22:00:02.300Z,66.06
2023-05-23T22:02:30.574Z,65.92
2023-05-23T22:04:58.871Z,66.65
2023-05-23T22:07:27.039Z,66.56
2023-05-23T22:09:56.546Z,66.25
2023-05-23T22:12:25.480Z,66.33
2023-05-23T22:14:53.636Z,66.75
2023-05-23T22:17:22.917Z,66.79
2023-05-23T22:19:52.054Z,66.25
2023-05-23T22:22:20.080Z,66.37
2023-05-23T22:24:47.889Z,66.48
2023-05-23T22:27:17.056Z,67.03
2023-05-23T22:29:44.872Z,66.95
2023-05-23T22:32:12.630Z,66.37
2023-05-23T22:34:40.440Z,66.62
2023-05-23T22:37:08.230Z,66.59
2023-05-23T22:39:36.067Z,67.00
2023-05-23T22:42:04.363Z,67.34
2023-05-23T22:44:33.543Z,67.14
2023-05-23T22:47:03.771Z,67.11
2023-05-23T22:49:32.086Z,67.42
2023-05-23T22:51:59.938Z,67.52
2023-05-23T22:54:27.743Z,67.71
2023-05-23T22:56:55.871Z,67.41
2023-05-23T22:59:23.670Z,68.04
2023-05-23T23:01:52.844Z,67.76
2023-05-23T23:04:23.566Z,67.54
2023-05-23T23:06:53.979Z,67.70
2023-05-23T23:09:21.825Z,68.32
2023-05-23T23:11:49.626Z,67.82
2023-05-23T23:14:17.359Z,68.03
2023-05-23T23:16:46.341Z,68.27
2023-05-23T23:19:16.751Z,67.77
2023-05-23T23:21:44.722Z,68.18
2023-05-23T23:24:13.633Z,68.31
2023-05-23T23:26:41.611Z,68.43
2023-05-23T23:29:09.433Z,67.79
2023-05-23T23:34:25.142Z,68.13
2023-05-23T23:36:52.972Z,68.55
2023-05-23T23:39:21.138Z,68.20
2023-05-23T23:41:49.171Z,68.38
2023-05-23T23:44:17.096Z,68.36
2023-05-23T23:46:45.337Z,68.59
2023-05-23T23:49:15.464Z,68.43
2023-05-23T23:51:44.799Z,68.77
2023-05-23T23:54:12.621Z,68.95
2023-05-23T23:56:40.620Z,69.16
2023-05-23T23:59:08.832Z,68.97
